createdAt,value
2022-12-06T07:48:13.953Z,7612.00
2022-12-06T07:49:13.943Z,7903.00
2022-12-06T07:50:17.800Z,8047.00
2022-12-06T07:51:13.921Z,8287.00
2022-12-06T07:52:13.922Z,8730.00
2022-12-06T07:53:13.910Z,9105.00
2022-12-06T07:54:13.912Z,9046.00
2022-12-06T07:55:13.885Z,8428.00
2022-12-06T07:56:13.877Z,6972.00
2022-12-06T07:57:13.857Z,7040.00
2022-12-06T07:58:13.847Z,8262.00
2022-12-06T07:59:13.842Z,9001.00
2022-12-06T08:00:13.825Z,9429.00
2022-12-06T08:01:13.842Z,9777.00
2022-12-06T08:02:13.810Z,10533.00
2022-12-06T08:03:13.798Z,10940.00
2022-12-06T08:04:13.854Z,10829.00
2022-12-06T08:05:13.779Z,10754.00
2022-12-06T08:06:13.763Z,10850.00
2022-12-06T08:07:13.754Z,10881.00
2022-12-06T08:08:13.818Z,10914.00
2022-12-06T08:09:13.737Z,10857.00
2022-12-06T08:10:13.775Z,11167.00
2022-12-06T08:11:13.715Z,11573.00
2022-12-06T08:12:13.701Z,12066.00
2022-12-06T08:13:13.694Z,11866.00
2022-12-06T08:14:13.682Z,11780.00
2022-12-06T08:15:13.670Z,11963.00
2022-12-06T08:16:13.727Z,11657.00
2022-12-06T08:17:13.648Z,11876.00
2022-12-06T08:18:13.637Z,11642.00
2022-12-06T08:19:13.627Z,11900.00
2022-12-06T08:20:13.622Z,11895.00
2022-12-06T08:21:13.606Z,11745.00
2022-12-06T08:22:13.600Z,12115.00
2022-12-06T08:23:13.592Z,12331.00
2022-12-06T08:24:13.576Z,12128.00
2022-12-06T08:25:13.569Z,12209.00
2022-12-06T08:26:13.580Z,12381.00
2022-12-06T08:27:13.548Z,12960.00
2022-12-06T08:28:13.535Z,13947.00
2022-12-06T08:29:13.521Z,14704.00
2022-12-06T08:30:13.510Z,15030.00
2022-12-06T08:31:13.589Z,15416.00
2022-12-06T08:32:13.494Z,15811.00
2022-12-06T08:33:13.483Z,16307.00
2022-12-06T08:34:13.475Z,16464.00
2022-12-06T08:35:13.458Z,16687.00
2022-12-06T08:36:13.447Z,17136.00
2022-12-06T08:37:13.436Z,17808.00
2022-12-06T08:38:13.426Z,18159.00
2022-12-06T08:39:13.419Z,18063.00
2022-12-06T08:40:13.411Z,18134.00
2022-12-06T08:41:13.394Z,18328.00
2022-12-06T08:42:13.405Z,18244.00
2022-12-06T08:43:13.373Z,18719.00
2022-12-06T08:44:13.364Z,18868.00
2022-12-06T08:45:13.353Z,18105.00
2022-12-06T08:46:13.392Z,18419.00
2022-12-06T08:47:13.335Z,18690.00
2022-12-06T08:48:13.325Z,20108.00
2022-12-06T08:49:13.310Z,19833.00
2022-12-06T08:50:13.302Z,20230.00
2022-12-06T08:52:13.281Z,20619.00
2022-12-06T08:53:13.275Z,21442.00
2022-12-06T08:54:13.260Z,20202.00
2022-12-06T08:55:13.247Z,19863.00
2022-12-06T08:56:13.236Z,18944.00
2022-12-06T08:57:13.229Z,19357.00
2022-12-06T08:58:13.237Z,19676.00
2022-12-06T08:59:13.208Z,19891.00
2022-12-06T09:00:13.199Z,19699.00
2022-12-06T09:01:13.210Z,21234.00
2022-12-06T09:02:13.303Z,23889.00
2022-12-06T09:03:13.169Z,22911.00
2022-12-06T09:04:13.175Z,22815.00
2022-12-06T09:05:13.147Z,20234.00
2022-12-06T09:06:13.134Z,12025.00
2022-12-06T09:07:13.124Z,13200.00
2022-12-06T09:08:13.210Z,20412.00
2022-12-06T09:09:13.102Z,27132.00
2022-12-06T09:10:13.095Z,27878.00
2022-12-06T09:11:13.083Z,27102.00
2022-12-06T09:12:13.072Z,26281.00
2022-12-06T09:13:13.060Z,25560.00
2022-12-06T09:14:17.834Z,25943.00
2022-12-06T09:15:14.063Z,29377.00
2022-12-06T09:16:13.106Z,23711.00
2022-12-06T09:17:13.018Z,30528.00
2022-12-06T09:18:13.016Z,31727.00
2022-12-06T09:19:12.997Z,30417.00
2022-12-06T09:20:13.291Z,33310.00
2022-12-06T09:21:12.976Z,29113.00
2022-12-06T09:22:12.966Z,26629.00
2022-12-06T09:23:12.957Z,30665.00
2022-12-06T09:24:12.943Z,35110.00
2022-12-06T09:25:12.936Z,40228.00
2022-12-06T09:26:12.923Z,43559.00
2022-12-06T09:27:12.911Z,42723.00
2022-12-06T09:28:12.903Z,44277.00
2022-12-06T09:29:12.901Z,43457.00
2022-12-06T09:30:12.908Z,39089.00
2022-12-06T09:31:12.973Z,34496.00
2022-12-06T09:32:12.865Z,36524.00
2022-12-06T09:33:12.849Z,48961.00
2022-12-06T09:34:12.845Z,56530.00
2022-12-06T09:35:15.612Z,59419.00
2022-12-06T09:36:12.822Z,47451.00
2022-12-06T09:37:12.812Z,40816.00
2022-12-06T09:38:12.804Z,41897.00
2022-12-06T09:39:12.791Z,39292.00
2022-12-06T09:40:12.782Z,40419.00
2022-12-06T09:41:12.773Z,39492.00
2022-12-06T09:42:12.764Z,37367.00
2022-12-06T09:43:12.752Z,39337.00
2022-12-06T09:44:12.747Z,42001.00
2022-12-06T09:45:12.727Z,39561.00
2022-12-06T09:46:12.813Z,39646.00
2022-12-06T09:47:12.709Z,40227.00
2022-12-06T09:48:12.700Z,37436.00
2022-12-06T09:49:12.689Z,38641.00
2022-12-06T09:50:12.675Z,38822.00
2022-12-06T09:51:12.667Z,36766.00
2022-12-06T09:52:12.659Z,37278.00
2022-12-06T09:53:12.896Z,42703.00
2022-12-06T09:54:12.637Z,45614.00
2022-12-06T09:55:12.625Z,37794.00
2022-12-06T09:56:12.612Z,42730.00
2022-12-06T09:57:12.606Z,45970.00
2022-12-06T09:58:12.594Z,41694.00
2022-12-06T09:59:12.582Z,40734.00
2022-12-06T10:00:15.477Z,42652.00
2022-12-06T10:01:13.586Z,45369.00
2022-12-06T10:02:12.677Z,43568.00
2022-12-06T10:03:12.617Z,40798.00
2022-12-06T10:04:12.529Z,43549.00
2022-12-06T10:05:12.525Z,46451.00
2022-12-06T10:06:12.508Z,49822.00
2022-12-06T10:07:12.502Z,44678.00
2022-12-06T10:08:12.761Z,40321.00
2022-12-06T10:09:12.640Z,45812.00
2022-12-06T10:10:12.472Z,50918.00
2022-12-06T10:11:12.461Z,48006.00
2022-12-06T10:12:12.449Z,41376.00
2022-12-06T10:13:12.438Z,46252.00
2022-12-06T10:14:12.432Z,48511.00
2022-12-06T10:15:12.423Z,45628.00
2022-12-06T10:16:12.503Z,44158.00
2022-12-06T10:17:12.396Z,51327.00
2022-12-06T10:18:12.413Z,50175.00
2022-12-06T10:19:12.376Z,47550.00
2022-12-06T10:20:12.366Z,51590.00
2022-12-06T10:21:12.355Z,50706.00
2022-12-06T10:22:12.345Z,47863.00
2022-12-06T10:23:12.340Z,49687.00
2022-12-06T10:25:12.904Z,48896.00
2022-12-06T10:25:14.316Z,48953.00
2022-12-06T10:26:14.305Z,52414.00
2022-12-06T10:27:14.292Z,59171.00
2022-12-06T10:28:14.285Z,57417.00
2022-12-06T10:29:14.270Z,48315.00
2022-12-06T10:30:37.639Z,59037.00
2022-12-06T10:31:14.287Z,59576.00
2022-12-06T10:32:14.245Z,52693.00
2022-12-06T10:33:14.256Z,52892.00
2022-12-06T10:34:14.225Z,48238.00
2022-12-06T10:35:14.215Z,49264.00
2022-12-06T10:36:14.206Z,49167.00
2022-12-06T10:38:35.475Z,48806.00
2022-12-06T10:38:36.879Z,48991.00
2022-12-06T11:00:28.305Z,53316.00
2022-12-06T11:00:29.799Z,53196.00
2022-12-06T14:49:57.445Z,17084.00
2022-12-06T14:49:59.179Z,17070.00
2022-12-06T14:50:58.839Z,17131.00
2022-12-06T14:53:16.658Z,17589.00
2022-12-06T14:53:18.034Z,17543.00
2022-12-06T14:54:18.039Z,15042.00
2022-12-06T14:55:18.081Z,16475.00
2022-12-06T14:56:53.408Z,16955.00
2022-12-06T14:57:18.010Z,16424.00
2022-12-06T14:58:17.988Z,15601.00
2022-12-06T14:59:33.417Z,15199.00
2022-12-06T15:00:26.647Z,14496.00
2022-12-06T15:01:18.977Z,13150.00
2022-12-06T15:02:17.947Z,13539.00
2022-12-06T15:03:18.074Z,13999.00
2022-12-06T15:04:18.049Z,14440.00
2022-12-06T15:05:17.945Z,12639.00
2022-12-06T15:06:17.909Z,12502.00
2022-12-06T15:07:17.902Z,13640.00
2022-12-06T15:08:18.081Z,11808.00
2022-12-06T15:09:17.877Z,11377.00
2022-12-06T15:10:17.866Z,11170.00
2022-12-06T15:11:17.857Z,10733.00
2022-12-06T15:12:17.847Z,11189.00
2022-12-06T15:13:17.835Z,11260.00
2022-12-06T15:14:17.826Z,10094.00
2022-12-06T15:15:17.818Z,8548.00
2022-12-06T15:16:17.906Z,8383.00
2022-12-06T15:17:17.799Z,7605.00
2022-12-06T15:18:17.819Z,7284.00
2022-12-06T15:19:17.780Z,7109.00
2022-12-06T15:20:17.770Z,6116.00
2022-12-06T15:21:17.777Z,6685.00
2022-12-06T15:22:24.294Z,6415.00
2022-12-06T15:23:18.761Z,5310.00
2022-12-06T15:24:17.726Z,4757.00
2022-12-06T15:25:17.711Z,4811.00
2022-12-06T15:26:17.701Z,4855.00
2022-12-06T15:27:17.694Z,4619.00
2022-12-06T15:28:19.867Z,4167.00
2022-12-06T15:29:17.672Z,3722.00
2022-12-06T15:30:17.664Z,3438.00
2022-12-06T15:31:17.726Z,3005.00
2022-12-06T15:32:17.645Z,2938.00
2022-12-06T15:33:17.630Z,2820.00
2022-12-06T15:34:17.623Z,2231.00
2022-12-06T15:36:17.601Z,1467.00
2022-12-06T15:38:18.604Z,454.00
2022-12-06T15:39:17.570Z,488.00
2022-12-06T15:40:17.559Z,436.00
2022-12-06T15:41:17.549Z,403.00
2022-12-06T15:42:17.540Z,360.00
2022-12-06T15:43:17.526Z,310.00
2022-12-06T15:44:17.516Z,270.00
2022-12-06T15:45:17.507Z,237.00
2022-12-06T15:46:17.605Z,196.00
2022-12-06T15:47:17.484Z,179.00
2022-12-06T15:48:17.471Z,165.00
2022-12-06T15:49:17.462Z,152.00
2022-12-06T15:50:17.454Z,140.00
2022-12-06T15:51:20.603Z,128.00
2022-12-06T15:52:17.431Z,116.00
2022-12-06T15:53:17.447Z,105.00
2022-12-06T15:54:17.409Z,95.00
2022-12-06T15:55:17.402Z,85.00
2022-12-06T15:56:17.390Z,76.00
2022-12-06T15:57:17.381Z,67.00
2022-12-06T15:58:17.367Z,61.00
2022-12-06T15:59:17.356Z,53.00
2022-12-06T16:00:17.347Z,47.00
2022-12-06T16:01:17.338Z,41.00
2022-12-06T16:02:17.488Z,36.00
2022-12-06T16:03:17.409Z,31.00
2022-12-06T16:04:17.304Z,26.00
2022-12-06T16:05:17.300Z,22.00
2022-12-06T16:06:17.290Z,20.00
2022-12-06T16:07:17.274Z,17.00
2022-12-06T16:08:17.505Z,14.00
2022-12-06T16:09:17.277Z,12.00
2022-12-06T16:10:22.151Z,10.00
2022-12-06T16:11:17.232Z,9.00
2022-12-06T16:12:17.223Z,7.00
2022-12-06T16:13:17.211Z,6.00
2022-12-06T16:14:17.204Z,6.00
2022-12-06T16:15:17.194Z,4.00
2022-12-06T16:16:17.245Z,3.00
2022-12-06T16:17:17.173Z,3.00
2022-12-06T16:18:17.162Z,3.00
2022-12-06T16:19:17.153Z,7.00
2022-12-06T16:20:17.137Z,2.00
2022-12-06T16:22:17.123Z,1.00
2022-12-06T16:23:17.109Z,1.00
2022-12-06T16:29:17.160Z,2.00
2022-12-06T16:30:17.037Z,2.00
2022-12-06T16:36:16.974Z,1.00
2022-12-06T16:37:16.965Z,1.00
2022-12-06T16:38:16.954Z,1.00
2022-12-06T16:39:16.999Z,1.00
2022-12-06T17:43:16.287Z,0.00
2022-12-06T17:44:16.276Z,0.00
2022-12-06T17:45:18.646Z,0.00
2022-12-06T17:46:16.301Z,0.00
2022-12-06T18:20:15.910Z,1.00
2022-12-06T19:44:15.053Z,0.00
2022-12-06T19:45:15.038Z,0.00
2022-12-06T19:46:15.133Z,0.00
2022-12-06T19:47:15.021Z,0.00
2022-12-06T19:48:15.010Z,0.00
2022-12-06T19:49:15.001Z,0.00
2022-12-06T19:50:14.988Z,0.00
2022-12-06T19:51:14.979Z,0.00
2022-12-06T19:52:14.967Z,0.00
2022-12-06T19:53:14.984Z,0.00
2022-12-06T19:54:14.948Z,0.00
2022-12-06T19:55:14.937Z,0.00
2022-12-06T19:56:14.930Z,0.00
2022-12-06T19:57:14.916Z,0.00
2022-12-06T19:58:14.907Z,0.00
2022-12-06T19:59:14.900Z,0.00
2022-12-06T20:00:18.348Z,0.00
2022-12-06T20:03:14.860Z,0.00
2022-12-06T20:04:14.850Z,0.00
2022-12-06T20:09:14.822Z,0.00
2022-12-06T20:10:14.785Z,0.00
2022-12-06T20:11:14.778Z,0.00
2022-12-06T20:12:14.767Z,0.00
2022-12-06T20:13:14.755Z,0.00
2022-12-06T20:14:14.746Z,0.00
2022-12-06T20:15:14.732Z,0.00
2022-12-06T20:16:14.796Z,0.00
2022-12-06T20:17:14.717Z,0.00
2022-12-06T20:18:14.704Z,0.00
2022-12-06T20:19:14.692Z,0.00
2022-12-06T20:20:14.686Z,0.00
2022-12-06T20:21:14.670Z,0.00
2022-12-06T20:24:14.641Z,0.00
2022-12-06T20:25:14.657Z,0.00
2022-12-06T20:47:14.505Z,0.00
2022-12-06T20:48:14.392Z,0.00
2022-12-06T20:50:14.372Z,0.00
2022-12-06T20:51:14.360Z,0.00
2022-12-06T20:52:14.350Z,0.00
2022-12-06T22:13:13.507Z,0.00
